sensor_id;sensor_type;location;lat;lon;timestamp;P1;durP1;ratioP1;P2;durP2;ratioP2
7817;SDS011;3954;52.624;9.212;2022-09-12T00:00:39;4.60;;;4.30;;
7817;SDS011;3954;52.624;9.212;2022-09-12T00:03:05;4.87;;;4.57;;
7817;SDS011;3954;52.624;9.212;2022-09-12T00:05:31;4.50;;;4.10;;
7817;SDS011;3954;52.624;9.212;2022-09-12T00:07:57;4.27;;;3.97;;
7817;SDS011;3954;52.624;9.212;2022-09-12T00:10:23;4.67;;;4.27;;
7817;SDS011;3954;52.624;9.212;2022-09-12T00:12:50;4.57;;;4.17;;
7817;SDS011;3954;52.624;9.212;2022-09-12T00:15:16;4.23;;;3.80;;
7817;SDS011;3954;52.624;9.212;2022-09-12T00:17:43;4.80;;;4.40;;
7817;SDS011;3954;52.624;9.212;2022-09-12T00:20:09;5.23;;;4.80;;
7817;SDS011;3954;52.624;9.212;2022-09-12T00:22:36;6.23;;;4.87;;
7817;SDS011;3954;52.624;9.212;2022-09-12T00:25:02;5.17;;;4.67;;
7817;SDS011;3954;52.624;9.212;2022-09-12T00:27:28;5.13;;;4.63;;
7817;SDS011;3954;52.624;9.212;2022-09-12T00:29:54;5.50;;;5.03;;
7817;SDS011;3954;52.624;9.212;2022-09-12T00:32:20;5.27;;;4.83;;
7817;SDS011;3954;52.624;9.212;2022-09-12T00:34:48;7.03;;;4.90;;
7817;SDS011;3954;52.624;9.212;2022-09-12T00:37:14;5.40;;;5.00;;
7817;SDS011;3954;52.624;9.212;2022-09-12T00:39:40;6.57;;;6.03;;
7817;SDS011;3954;52.624;9.212;2022-09-12T00:42:07;6.07;;;5.47;;
7817;SDS011;3954;52.624;9.212;2022-09-12T00:44:44;5.57;;;5.07;;
7817;SDS011;3954;52.624;9.212;2022-09-12T00:47:13;5.60;;;5.00;;
7817;SDS011;3954;52.624;9.212;2022-09-12T00:49:41;5.00;;;4.60;;
7817;SDS011;3954;52.624;9.212;2022-09-12T00:52:11;5.10;;;4.70;;
7817;SDS011;3954;52.624;9.212;2022-09-12T00:54:40;5.10;;;4.70;;
7817;SDS011;3954;52.624;9.212;2022-09-12T00:57:07;5.10;;;4.70;;
7817;SDS011;3954;52.624;9.212;2022-09-12T00:59:36;5.00;;;4.60;;
7817;SDS011;3954;52.624;9.212;2022-09-12T01:02:03;5.50;;;5.10;;
7817;SDS011;3954;52.624;9.212;2022-09-12T01:04:29;5.70;;;5.20;;
7817;SDS011;3954;52.624;9.212;2022-09-12T01:06:56;5.20;;;4.80;;
7817;SDS011;3954;52.624;9.212;2022-09-12T01:09:24;5.33;;;4.93;;
7817;SDS011;3954;52.624;9.212;2022-09-12T01:11:51;4.80;;;4.40;;
7817;SDS011;3954;52.624;9.212;2022-09-12T01:14:17;4.93;;;4.43;;
7817;SDS011;3954;52.624;9.212;2022-09-12T01:16:44;4.90;;;4.50;;
7817;SDS011;3954;52.624;9.212;2022-09-12T01:19:15;4.70;;;4.30;;
7817;SDS011;3954;52.624;9.212;2022-09-12T01:21:45;4.83;;;4.43;;
7817;SDS011;3954;52.624;9.212;2022-09-12T01:27:14;4.40;;;4.00;;
7817;SDS011;3954;52.624;9.212;2022-09-12T01:29:55;4.43;;;4.03;;
7817;SDS011;3954;52.624;9.212;2022-09-12T01:32:27;4.40;;;4.10;;
7817;SDS011;3954;52.624;9.212;2022-09-12T01:34:57;4.53;;;4.13;;
7817;SDS011;3954;52.624;9.212;2022-09-12T01:37:28;5.53;;;4.50;;
7817;SDS011;3954;52.624;9.212;2022-09-12T01:40:00;4.47;;;4.17;;
7817;SDS011;3954;52.624;9.212;2022-09-12T01:42:29;4.53;;;4.20;;
7817;SDS011;3954;52.624;9.212;2022-09-12T01:44:59;4.50;;;4.10;;
7817;SDS011;3954;52.624;9.212;2022-09-12T01:47:29;5.33;;;4.33;;
7817;SDS011;3954;52.624;9.212;2022-09-12T01:49:59;4.60;;;4.20;;
7817;SDS011;3954;52.624;9.212;2022-09-12T01:52:26;4.07;;;3.77;;
7817;SDS011;3954;52.624;9.212;2022-09-12T01:54:56;4.13;;;3.83;;
7817;SDS011;3954;52.624;9.212;2022-09-12T01:57:24;5.70;;;4.03;;
7817;SDS011;3954;52.624;9.212;2022-09-12T01:59:53;4.03;;;3.73;;
7817;SDS011;3954;52.624;9.212;2022-09-12T02:02:21;4.77;;;4.37;;
7817;SDS011;3954;52.624;9.212;2022-09-12T02:04:50;4.37;;;3.97;;
7817;SDS011;3954;52.624;9.212;2022-09-12T02:07:18;3.83;;;3.53;;
7817;SDS011;3954;52.624;9.212;2022-09-12T02:09:45;4.43;;;4.03;;
7817;SDS011;3954;52.624;9.212;2022-09-12T02:12:14;4.47;;;4.17;;
7817;SDS011;3954;52.624;9.212;2022-09-12T02:14:44;4.00;;;3.70;;
7817;SDS011;3954;52.624;9.212;2022-09-12T02:17:12;4.20;;;3.80;;
7817;SDS011;3954;52.624;9.212;2022-09-12T02:19:39;5.97;;;3.83;;
7817;SDS011;3954;52.624;9.212;2022-09-12T02:22:07;4.37;;;3.97;;
7817;SDS011;3954;52.624;9.212;2022-09-12T02:24:37;3.90;;;3.50;;
7817;SDS011;3954;52.624;9.212;2022-09-12T02:27:05;3.93;;;3.63;;
7817;SDS011;3954;52.624;9.212;2022-09-12T02:29:32;4.87;;;3.70;;
7817;SDS011;3954;52.624;9.212;2022-09-12T02:31:59;3.77;;;3.47;;
7817;SDS011;3954;52.624;9.212;2022-09-12T02:34:31;5.03;;;3.90;;
7817;SDS011;3954;52.624;9.212;2022-09-12T02:37:05;3.77;;;3.47;;
7817;SDS011;3954;52.624;9.212;2022-09-12T02:39:33;4.17;;;3.53;;
7817;SDS011;3954;52.624;9.212;2022-09-12T02:41:59;3.47;;;3.17;;
7817;SDS011;3954;52.624;9.212;2022-09-12T02:44:28;3.97;;;3.67;;
7817;SDS011;3954;52.624;9.212;2022-09-12T02:46:55;4.70;;;3.67;;
7817;SDS011;3954;52.624;9.212;2022-09-12T02:49:22;4.07;;;3.43;;
7817;SDS011;3954;52.624;9.212;2022-09-12T02:51:48;4.23;;;3.63;;
7817;SDS011;3954;52.624;9.212;2022-09-12T02:54:14;4.13;;;3.73;;
7817;SDS011;3954;52.624;9.212;2022-09-12T02:56:43;4.43;;;4.00;;
7817;SDS011;3954;52.624;9.212;2022-09-12T02:59:10;4.80;;;4.40;;
7817;SDS011;3954;52.624;9.212;2022-09-12T03:01:46;4.57;;;4.17;;
7817;SDS011;3954;52.624;9.212;2022-09-12T03:04:18;5.63;;;5.13;;
7817;SDS011;3954;52.624;9.212;2022-09-12T03:06:50;5.37;;;4.87;;
7817;SDS011;3954;52.624;9.212;2022-09-12T03:09:22;5.43;;;4.50;;
7817;SDS011;3954;52.624;9.212;2022-09-12T03:11:58;4.90;;;4.50;;
7817;SDS011;3954;52.624;9.212;2022-09-12T03:14:31;5.10;;;4.70;;
7817;SDS011;3954;52.624;9.212;2022-09-12T03:17:02;5.00;;;4.60;;
7817;SDS011;3954;52.624;9.212;2022-09-12T03:19:32;6.60;;;6.00;;
7817;SDS011;3954;52.624;9.212;2022-09-12T03:22:02;6.30;;;5.80;;
7817;SDS011;3954;52.624;9.212;2022-09-12T03:24:29;5.90;;;5.37;;
7817;SDS011;3954;52.624;9.212;2022-09-12T03:27:00;7.50;;;6.70;;
7817;SDS011;3954;52.624;9.212;2022-09-12T03:29:28;7.20;;;6.50;;
7817;SDS011;3954;52.624;9.212;2022-09-12T03:31:56;9.70;;;7.87;;
7817;SDS011;3954;52.624;9.212;2022-09-12T03:34:23;12.03;;;8.27;;
7817;SDS011;3954;52.624;9.212;2022-09-12T03:36:49;11.97;;;9.07;;
7817;SDS011;3954;52.624;9.212;2022-09-12T03:39:15;8.50;;;7.70;;
7817;SDS011;3954;52.624;9.212;2022-09-12T03:41:42;9.73;;;8.47;;
7817;SDS011;3954;52.624;9.212;2022-09-12T03:44:09;10.03;;;8.60;;
7817;SDS011;3954;52.624;9.212;2022-09-12T03:46:35;9.77;;;8.67;;
7817;SDS011;3954;52.624;9.212;2022-09-12T03:49:01;10.93;;;9.53;;
7817;SDS011;3954;52.624;9.212;2022-09-12T03:51:27;9.83;;;8.83;;
7817;SDS011;3954;52.624;9.212;2022-09-12T03:53:53;14.50;;;9.90;;
7817;SDS011;3954;52.624;9.212;2022-09-12T03:56:19;15.87;;;10.00;;
7817;SDS011;3954;52.624;9.212;2022-09-12T03:58:45;13.67;;;9.53;;
7817;SDS011;3954;52.624;9.212;2022-09-12T04:01:13;11.43;;;9.10;;
7817;SDS011;3954;52.624;9.212;2022-09-12T04:03:40;10.73;;;9.63;;
7817;SDS011;3954;52.624;9.212;2022-09-12T04:06:06;11.40;;;10.07;;
7817;SDS011;3954;52.624;9.212;2022-09-12T04:08:32;10.20;;;9.20;;
7817;SDS011;3954;52.624;9.212;2022-09-12T04:11:02;10.23;;;9.10;;
7817;SDS011;3954;52.624;9.212;2022-09-12T04:13:28;9.47;;;7.63;;
7817;SDS011;3954;52.624;9.212;2022-09-12T04:15:55;9.40;;;8.50;;
7817;SDS011;3954;52.624;9.212;2022-09-12T04:18:22;9.63;;;8.53;;
7817;SDS011;3954;52.624;9.212;2022-09-12T04:20:48;8.30;;;7.50;;
7817;SDS011;3954;52.624;9.212;2022-09-12T04:23:14;7.80;;;7.10;;
7817;SDS011;3954;52.624;9.212;2022-09-12T04:25:40;7.87;;;7.13;;
7817;SDS011;3954;52.624;9.212;2022-09-12T04:28:06;8.60;;;6.97;;
7817;SDS011;3954;52.624;9.212;2022-09-12T04:30:32;7.17;;;6.57;;
7817;SDS011;3954;52.624;9.212;2022-09-12T04:32:58;6.90;;;6.23;;
7817;SDS011;3954;52.624;9.212;2022-09-12T04:35:26;7.10;;;6.40;;
7817;SDS011;3954;52.624;9.212;2022-09-12T04:37:52;7.00;;;6.30;;
7817;SDS011;3954;52.624;9.212;2022-09-12T04:40:18;6.60;;;6.00;;
7817;SDS011;3954;52.624;9.212;2022-09-12T04:42:44;7.03;;;6.33;;
7817;SDS011;3954;52.624;9.212;2022-09-12T04:45:10;7.00;;;6.27;;
7817;SDS011;3954;52.624;9.212;2022-09-12T04:47:37;6.90;;;6.30;;
7817;SDS011;3954;52.624;9.212;2022-09-12T04:50:03;6.33;;;5.73;;
7817;SDS011;3954;52.624;9.212;2022-09-12T04:52:30;6.83;;;6.20;;
7817;SDS011;3954;52.624;9.212;2022-09-12T04:54:56;6.90;;;6.30;;
7817;SDS011;3954;52.624;9.212;2022-09-12T04:57:22;6.73;;;6.03;;
7817;SDS011;3954;52.624;9.212;2022-09-12T04:59:49;5.90;;;5.30;;
7817;SDS011;3954;52.624;9.212;2022-09-12T05:02:15;7.93;;;5.93;;
7817;SDS011;3954;52.624;9.212;2022-09-12T05:04:42;6.40;;;5.70;;
7817;SDS011;3954;52.624;9.212;2022-09-12T05:07:07;7.10;;;5.30;;
7817;SDS011;3954;52.624;9.212;2022-09-12T05:09:35;6.10;;;5.50;;
7817;SDS011;3954;52.624;9.212;2022-09-12T05:12:01;5.90;;;4.90;;
7817;SDS011;3954;52.624;9.212;2022-09-12T05:14:28;6.20;;;5.60;;
7817;SDS011;3954;52.624;9.212;2022-09-12T05:16:55;6.70;;;5.17;;
7817;SDS011;3954;52.624;9.212;2022-09-12T05:19:24;6.33;;;5.67;;
7817;SDS011;3954;52.624;9.212;2022-09-12T05:21:50;6.50;;;5.67;;
7817;SDS011;3954;52.624;9.212;2022-09-12T05:24:16;6.67;;;6.10;;
7817;SDS011;3954;52.624;9.212;2022-09-12T05:26:44;7.33;;;5.73;;
7817;SDS011;3954;52.624;9.212;2022-09-12T05:29:10;6.13;;;5.50;;
7817;SDS011;3954;52.624;9.212;2022-09-12T05:31:37;6.40;;;5.80;;
7817;SDS011;3954;52.624;9.212;2022-09-12T05:34:03;5.83;;;5.10;;
7817;SDS011;3954;52.624;9.212;2022-09-12T05:36:31;6.30;;;5.70;;
7817;SDS011;3954;52.624;9.212;2022-09-12T05:38:58;5.97;;;5.40;;
7817;SDS011;3954;52.624;9.212;2022-09-12T05:41:24;6.93;;;5.83;;
7817;SDS011;3954;52.624;9.212;2022-09-12T05:43:52;6.60;;;6.00;;
7817;SDS011;3954;52.624;9.212;2022-09-12T05:46:19;6.50;;;5.80;;
7817;SDS011;3954;52.624;9.212;2022-09-12T05:48:46;6.70;;;6.10;;
7817;SDS011;3954;52.624;9.212;2022-09-12T05:51:13;6.43;;;5.40;;
7817;SDS011;3954;52.624;9.212;2022-09-12T05:53:43;5.93;;;5.43;;
7817;SDS011;3954;52.624;9.212;2022-09-12T05:56:10;8.63;;;5.17;;
7817;SDS011;3954;52.624;9.212;2022-09-12T05:58:37;6.33;;;5.73;;
7817;SDS011;3954;52.624;9.212;2022-09-12T06:01:05;7.27;;;6.57;;
7817;SDS011;3954;52.624;9.212;2022-09-12T06:03:32;8.43;;;6.47;;
7817;SDS011;3954;52.624;9.212;2022-09-12T06:06:00;7.93;;;7.13;;
7817;SDS011;3954;52.624;9.212;2022-09-12T06:08:26;9.20;;;7.63;;
7817;SDS011;3954;52.624;9.212;2022-09-12T06:10:56;9.00;;;8.00;;
7817;SDS011;3954;52.624;9.212;2022-09-12T06:13:23;9.23;;;8.33;;
7817;SDS011;3954;52.624;9.212;2022-09-12T06:15:49;9.50;;;8.50;;
7817;SDS011;3954;52.624;9.212;2022-09-12T06:18:17;12.60;;;8.30;;
7817;SDS011;3954;52.624;9.212;2022-09-12T06:20:42;9.27;;;8.33;;
7817;SDS011;3954;52.624;9.212;2022-09-12T06:23:08;9.03;;;7.80;;
7817;SDS011;3954;52.624;9.212;2022-09-12T06:25:34;9.57;;;8.27;;
7817;SDS011;3954;52.624;9.212;2022-09-12T06:28:00;9.80;;;8.57;;
7817;SDS011;3954;52.624;9.212;2022-09-12T06:30:27;10.93;;;9.83;;
7817;SDS011;3954;52.624;9.212;2022-09-12T06:32:53;13.73;;;12.33;;
7817;SDS011;3954;52.624;9.212;2022-09-12T06:35:22;12.07;;;10.17;;
7817;SDS011;3954;52.624;9.212;2022-09-12T06:37:48;13.57;;;11.90;;
7817;SDS011;3954;52.624;9.212;2022-09-12T06:40:14;16.90;;;11.80;;
7817;SDS011;3954;52.624;9.212;2022-09-12T06:42:40;15.07;;;11.33;;
7817;SDS011;3954;52.624;9.212;2022-09-12T06:45:06;16.03;;;12.73;;
7817;SDS011;3954;52.624;9.212;2022-09-12T06:47:33;15.97;;;12.63;;
7817;SDS011;3954;52.624;9.212;2022-09-12T06:49:59;13.43;;;12.03;;
7817;SDS011;3954;52.624;9.212;2022-09-12T06:52:26;16.97;;;13.17;;
7817;SDS011;3954;52.624;9.212;2022-09-12T06:54:53;19.17;;;13.27;;
7817;SDS011;3954;52.624;9.212;2022-09-12T06:57:19;12.90;;;11.33;;
7817;SDS011;3954;52.624;9.212;2022-09-12T06:59:45;16.07;;;12.63;;
7817;SDS011;3954;52.624;9.212;2022-09-12T07:02:11;15.30;;;13.40;;
7817;SDS011;3954;52.624;9.212;2022-09-12T07:04:37;16.30;;;12.80;;
7817;SDS011;3954;52.624;9.212;2022-09-12T07:07:03;13.93;;;12.43;;
7817;SDS011;3954;52.624;9.212;2022-09-12T07:09:31;12.77;;;11.37;;
7817;SDS011;3954;52.624;9.212;2022-09-12T07:11:57;13.07;;;11.47;;
7817;SDS011;3954;52.624;9.212;2022-09-12T07:14:23;12.20;;;10.70;;
7817;SDS011;3954;52.624;9.212;2022-09-12T07:16:50;11.43;;;10.33;;
7817;SDS011;3954;52.624;9.212;2022-09-12T07:19:16;13.93;;;12.20;;
7817;SDS011;3954;52.624;9.212;2022-09-12T07:21:42;13.93;;;12.53;;
7817;SDS011;3954;52.624;9.212;2022-09-12T07:24:08;13.00;;;11.70;;
7817;SDS011;3954;52.624;9.212;2022-09-12T07:26:36;15.47;;;12.93;;
7817;SDS011;3954;52.624;9.212;2022-09-12T07:29:02;14.73;;;12.97;;
7817;SDS011;3954;52.624;9.212;2022-09-12T07:31:29;13.53;;;12.13;;
7817;SDS011;3954;52.624;9.212;2022-09-12T07:33:55;14.53;;;12.60;;
7817;SDS011;3954;52.624;9.212;2022-09-12T07:36:22;14.20;;;12.37;;
7817;SDS011;3954;52.624;9.212;2022-09-12T07:38:55;13.90;;;12.33;;
7817;SDS011;3954;52.624;9.212;2022-09-12T07:41:26;11.73;;;10.63;;
7817;SDS011;3954;52.624;9.212;2022-09-12T07:43:54;13.00;;;11.17;;
7817;SDS011;3954;52.624;9.212;2022-09-12T07:46:21;12.23;;;10.90;;
7817;SDS011;3954;52.624;9.212;2022-09-12T07:48:50;10.73;;;9.70;;
7817;SDS011;3954;52.624;9.212;2022-09-12T07:51:17;11.43;;;10.07;;
7817;SDS011;3954;52.624;9.212;2022-09-12T07:53:43;9.80;;;8.30;;
7817;SDS011;3954;52.624;9.212;2022-09-12T07:56:09;13.90;;;10.93;;
7817;SDS011;3954;52.624;9.212;2022-09-12T07:58:36;13.60;;;11.57;;
7817;SDS011;3954;52.624;9.212;2022-09-12T08:01:04;11.30;;;10.10;;
7817;SDS011;3954;52.624;9.212;2022-09-12T08:03:31;13.60;;;11.43;;
7817;SDS011;3954;52.624;9.212;2022-09-12T08:06:01;12.93;;;11.63;;
7817;SDS011;3954;52.624;9.212;2022-09-12T08:08:27;11.93;;;10.63;;
7817;SDS011;3954;52.624;9.212;2022-09-12T08:10:55;16.63;;;14.73;;
7817;SDS011;3954;52.624;9.212;2022-09-12T08:13:21;11.63;;;10.43;;
7817;SDS011;3954;52.624;9.212;2022-09-12T08:15:47;10.00;;;8.87;;
7817;SDS011;3954;52.624;9.212;2022-09-12T08:18:14;10.40;;;9.30;;
7817;SDS011;3954;52.624;9.212;2022-09-12T08:20:40;9.03;;;7.90;;
7817;SDS011;3954;52.624;9.212;2022-09-12T08:23:07;9.97;;;8.00;;
7817;SDS011;3954;52.624;9.212;2022-09-12T08:25:33;10.70;;;6.97;;
7817;SDS011;3954;52.624;9.212;2022-09-12T08:27:59;9.40;;;7.90;;
7817;SDS011;3954;52.624;9.212;2022-09-12T08:30:25;8.57;;;7.63;;
7817;SDS011;3954;52.624;9.212;2022-09-12T08:32:51;6.97;;;6.17;;
7817;SDS011;3954;52.624;9.212;2022-09-12T08:35:18;7.73;;;6.00;;
7817;SDS011;3954;52.624;9.212;2022-09-12T08:37:44;6.97;;;6.27;;
7817;SDS011;3954;52.624;9.212;2022-09-12T08:40:13;5.70;;;5.10;;
7817;SDS011;3954;52.624;9.212;2022-09-12T08:42:42;6.10;;;5.43;;
7817;SDS011;3954;52.624;9.212;2022-09-12T08:45:12;6.37;;;5.77;;
7817;SDS011;3954;52.624;9.212;2022-09-12T08:47:42;5.73;;;5.23;;
7817;SDS011;3954;52.624;9.212;2022-09-12T08:50:11;4.70;;;4.27;;
7817;SDS011;3954;52.624;9.212;2022-09-12T08:52:42;5.97;;;4.30;;
7817;SDS011;3954;52.624;9.212;2022-09-12T08:55:12;5.87;;;4.43;;
7817;SDS011;3954;52.624;9.212;2022-09-12T08:57:41;6.53;;;4.33;;
7817;SDS011;3954;52.624;9.212;2022-09-12T09:00:11;4.47;;;3.73;;
7817;SDS011;3954;52.624;9.212;2022-09-12T09:02:44;5.27;;;4.03;;
7817;SDS011;3954;52.624;9.212;2022-09-12T09:05:16;4.77;;;4.07;;
7817;SDS011;3954;52.624;9.212;2022-09-12T09:10:30;6.07;;;4.67;;
7817;SDS011;3954;52.624;9.212;2022-09-12T09:13:01;6.80;;;5.23;;
7817;SDS011;3954;52.624;9.212;2022-09-12T09:15:32;5.70;;;5.10;;
7817;SDS011;3954;52.624;9.212;2022-09-12T09:18:07;8.10;;;4.80;;
7817;SDS011;3954;52.624;9.212;2022-09-12T09:20:37;5.67;;;4.97;;
7817;SDS011;3954;52.624;9.212;2022-09-12T09:23:06;5.67;;;5.07;;
7817;SDS011;3954;52.624;9.212;2022-09-12T09:25:39;4.97;;;3.97;;
7817;SDS011;3954;52.624;9.212;2022-09-12T09:28:10;4.23;;;3.83;;
7817;SDS011;3954;52.624;9.212;2022-09-12T09:30:38;4.97;;;4.23;;
7817;SDS011;3954;52.624;9.212;2022-09-12T09:33:05;6.37;;;3.83;;
7817;SDS011;3954;52.624;9.212;2022-09-12T09:35:37;5.50;;;3.90;;
7817;SDS011;3954;52.624;9.212;2022-09-12T09:38:13;4.73;;;3.80;;
7817;SDS011;3954;52.624;9.212;2022-09-12T09:40:46;5.60;;;3.83;;
7817;SDS011;3954;52.624;9.212;2022-09-12T09:43:16;4.63;;;3.90;;
7817;SDS011;3954;52.624;9.212;2022-09-12T09:45:46;3.67;;;3.30;;
7817;SDS011;3954;52.624;9.212;2022-09-12T09:48:15;4.13;;;3.73;;
7817;SDS011;3954;52.624;9.212;2022-09-12T09:50:42;5.00;;;3.83;;
7817;SDS011;3954;52.624;9.212;2022-09-12T09:53:08;4.13;;;3.47;;
7817;SDS011;3954;52.624;9.212;2022-09-12T09:55:37;5.43;;;3.60;;
7817;SDS011;3954;52.624;9.212;2022-09-12T09:58:05;4.30;;;3.50;;
7817;SDS011;3954;52.624;9.212;2022-09-12T10:00:32;4.20;;;3.80;;
7817;SDS011;3954;52.624;9.212;2022-09-12T10:03:00;4.83;;;3.40;;
7817;SDS011;3954;52.624;9.212;2022-09-12T10:05:29;4.43;;;3.83;;
7817;SDS011;3954;52.624;9.212;2022-09-12T10:07:57;4.90;;;3.40;;
7817;SDS011;3954;52.624;9.212;2022-09-12T10:10:23;3.83;;;3.30;;
7817;SDS011;3954;52.624;9.212;2022-09-12T10:12:49;4.37;;;3.17;;
7817;SDS011;3954;52.624;9.212;2022-09-12T10:15:18;3.70;;;3.30;;
7817;SDS011;3954;52.624;9.212;2022-09-12T10:17:45;10.83;;;3.90;;
7817;SDS011;3954;52.624;9.212;2022-09-12T10:22:53;3.43;;;2.87;;
7817;SDS011;3954;52.624;9.212;2022-09-12T10:25:19;4.60;;;3.20;;
7817;SDS011;3954;52.624;9.212;2022-09-12T10:27:50;5.37;;;3.33;;
7817;SDS011;3954;52.624;9.212;2022-09-12T10:30:18;5.80;;;3.30;;
7817;SDS011;3954;52.624;9.212;2022-09-12T10:32:46;3.30;;;3.00;;
7817;SDS011;3954;52.624;9.212;2022-09-12T10:35:19;4.33;;;3.03;;
7817;SDS011;3954;52.624;9.212;2022-09-12T10:37:49;3.90;;;3.30;;
7817;SDS011;3954;52.624;9.212;2022-09-12T10:40:19;6.33;;;3.20;;
7817;SDS011;3954;52.624;9.212;2022-09-12T10:42:48;4.63;;;3.00;;
7817;SDS011;3954;52.624;9.212;2022-09-12T10:45:23;6.33;;;3.07;;
7817;SDS011;3954;52.624;9.212;2022-09-12T10:47:49;3.90;;;3.07;;
7817;SDS011;3954;52.624;9.212;2022-09-12T10:50:18;6.17;;;3.37;;
7817;SDS011;3954;52.624;9.212;2022-09-12T10:52:44;3.83;;;3.20;;
7817;SDS011;3954;52.624;9.212;2022-09-12T10:55:11;6.17;;;3.40;;
7817;SDS011;3954;52.624;9.212;2022-09-12T10:57:53;5.33;;;3.50;;
7817;SDS011;3954;52.624;9.212;2022-09-12T11:00:23;3.27;;;2.90;;
7817;SDS011;3954;52.624;9.212;2022-09-12T11:02:56;3.33;;;2.87;;
7817;SDS011;3954;52.624;9.212;2022-09-12T11:05:32;4.60;;;3.10;;
7817;SDS011;3954;52.624;9.212;2022-09-12T11:08:03;3.13;;;2.83;;
7817;SDS011;3954;52.624;9.212;2022-09-12T11:10:33;4.00;;;3.30;;
7817;SDS011;3954;52.624;9.212;2022-09-12T11:13:05;3.70;;;3.37;;
7817;SDS011;3954;52.624;9.212;2022-09-12T11:15:42;3.33;;;3.03;;
7817;SDS011;3954;52.624;9.212;2022-09-12T11:18:14;5.27;;;2.97;;
7817;SDS011;3954;52.624;9.212;2022-09-12T11:20:50;3.70;;;3.10;;
7817;SDS011;3954;52.624;9.212;2022-09-12T11:23:25;3.80;;;3.40;;
7817;SDS011;3954;52.624;9.212;2022-09-12T11:25:57;3.33;;;3.03;;
7817;SDS011;3954;52.624;9.212;2022-09-12T11:28:27;4.33;;;3.90;;
7817;SDS011;3954;52.624;9.212;2022-09-12T11:31:02;5.27;;;3.13;;
7817;SDS011;3954;52.624;9.212;2022-09-12T11:33:35;3.60;;;3.30;;
7817;SDS011;3954;52.624;9.212;2022-09-12T11:36:05;6.00;;;3.93;;
7817;SDS011;3954;52.624;9.212;2022-09-12T11:38:43;3.57;;;3.23;;
7817;SDS011;3954;52.624;9.212;2022-09-12T11:41:14;4.27;;;3.40;;
7817;SDS011;3954;52.624;9.212;2022-09-12T11:43:42;6.50;;;3.60;;
7817;SDS011;3954;52.624;9.212;2022-09-12T11:46:13;2.97;;;2.60;;
7817;SDS011;3954;52.624;9.212;2022-09-12T11:48:43;3.40;;;3.10;;
7817;SDS011;3954;52.624;9.212;2022-09-12T11:51:14;5.03;;;3.20;;
7817;SDS011;3954;52.624;9.212;2022-09-12T11:53:42;4.77;;;3.07;;
7817;SDS011;3954;52.624;9.212;2022-09-12T11:56:10;4.30;;;3.13;;
7817;SDS011;3954;52.624;9.212;2022-09-12T11:58:38;3.50;;;3.20;;
7817;SDS011;3954;52.624;9.212;2022-09-12T12:01:08;3.93;;;3.53;;
7817;SDS011;3954;52.624;9.212;2022-09-12T12:03:38;4.33;;;2.67;;
7817;SDS011;3954;52.624;9.212;2022-09-12T12:06:06;3.80;;;2.43;;
7817;SDS011;3954;52.624;9.212;2022-09-12T12:08:36;3.53;;;2.60;;
7817;SDS011;3954;52.624;9.212;2022-09-12T12:11:03;3.13;;;2.43;;
7817;SDS011;3954;52.624;9.212;2022-09-12T12:13:31;2.97;;;2.67;;
7817;SDS011;3954;52.624;9.212;2022-09-12T12:15:58;2.40;;;2.20;;
7817;SDS011;3954;52.624;9.212;2022-09-12T12:18:26;2.57;;;2.37;;
7817;SDS011;3954;52.624;9.212;2022-09-12T12:20:54;2.50;;;2.30;;
7817;SDS011;3954;52.624;9.212;2022-09-12T12:23:25;4.07;;;2.40;;
7817;SDS011;3954;52.624;9.212;2022-09-12T12:25:53;5.10;;;2.87;;
7817;SDS011;3954;52.624;9.212;2022-09-12T12:31:04;1.90;;;1.73;;
7817;SDS011;3954;52.624;9.212;2022-09-12T12:36:29;3.10;;;2.20;;
7817;SDS011;3954;52.624;9.212;2022-09-12T12:38:55;2.50;;;2.13;;
7817;SDS011;3954;52.624;9.212;2022-09-12T12:46:59;3.10;;;2.00;;
7817;SDS011;3954;52.624;9.212;2022-09-12T12:49:32;4.27;;;2.33;;
7817;SDS011;3954;52.624;9.212;2022-09-12T12:52:00;4.17;;;1.90;;
7817;SDS011;3954;52.624;9.212;2022-09-12T12:54:33;1.90;;;1.70;;
7817;SDS011;3954;52.624;9.212;2022-09-12T12:57:25;4.07;;;2.10;;
7817;SDS011;3954;52.624;9.212;2022-09-12T12:59:52;2.63;;;2.20;;
7817;SDS011;3954;52.624;9.212;2022-09-12T13:02:21;2.33;;;2.13;;
7817;SDS011;3954;52.624;9.212;2022-09-12T13:04:48;2.17;;;1.97;;
7817;SDS011;3954;52.624;9.212;2022-09-12T13:07:20;2.90;;;2.23;;
7817;SDS011;3954;52.624;9.212;2022-09-12T13:09:50;4.13;;;1.87;;
7817;SDS011;3954;52.624;9.212;2022-09-12T13:12:17;3.63;;;2.47;;
7817;SDS011;3954;52.624;9.212;2022-09-12T13:14:53;2.33;;;1.77;;
7817;SDS011;3954;52.624;9.212;2022-09-12T13:20:02;1.93;;;1.73;;
7817;SDS011;3954;52.624;9.212;2022-09-12T13:22:38;4.57;;;2.27;;
7817;SDS011;3954;52.624;9.212;2022-09-12T13:25:15;2.77;;;1.70;;
7817;SDS011;3954;52.624;9.212;2022-09-12T13:27:46;2.10;;;1.90;;
7817;SDS011;3954;52.624;9.212;2022-09-12T13:30:20;2.00;;;1.80;;
7817;SDS011;3954;52.624;9.212;2022-09-12T13:32:46;1.90;;;1.80;;
7817;SDS011;3954;52.624;9.212;2022-09-12T13:35:12;2.13;;;1.87;;
7817;SDS011;3954;52.624;9.212;2022-09-12T13:37:45;2.10;;;1.80;;
7817;SDS011;3954;52.624;9.212;2022-09-12T13:40:24;1.87;;;1.73;;
7817;SDS011;3954;52.624;9.212;2022-09-12T13:42:52;3.50;;;2.00;;
7817;SDS011;3954;52.624;9.212;2022-09-12T13:45:31;2.80;;;1.80;;
7817;SDS011;3954;52.624;9.212;2022-09-12T13:47:59;2.07;;;1.80;;
7817;SDS011;3954;52.624;9.212;2022-09-12T13:50:27;3.00;;;2.13;;
7817;SDS011;3954;52.624;9.212;2022-09-12T13:52:56;3.13;;;2.13;;
7817;SDS011;3954;52.624;9.212;2022-09-12T13:55:25;1.87;;;1.77;;
7817;SDS011;3954;52.624;9.212;2022-09-12T13:57:57;2.00;;;1.90;;
7817;SDS011;3954;52.624;9.212;2022-09-12T14:00:23;2.00;;;1.80;;
7817;SDS011;3954;52.624;9.212;2022-09-12T14:02:50;2.00;;;1.80;;
7817;SDS011;3954;52.624;9.212;2022-09-12T14:05:34;1.90;;;1.80;;
7817;SDS011;3954;52.624;9.212;2022-09-12T14:08:05;2.63;;;1.73;;
7817;SDS011;3954;52.624;9.212;2022-09-12T14:10:33;2.73;;;2.10;;
7817;SDS011;3954;52.624;9.212;2022-09-12T14:13:00;1.80;;;1.70;;
7817;SDS011;3954;52.624;9.212;2022-09-12T14:15:27;3.10;;;1.80;;
7817;SDS011;3954;52.624;9.212;2022-09-12T14:17:55;3.17;;;2.10;;
7817;SDS011;3954;52.624;9.212;2022-09-12T14:20:25;1.70;;;1.60;;
7817;SDS011;3954;52.624;9.212;2022-09-12T14:22:55;2.00;;;1.90;;
7817;SDS011;3954;52.624;9.212;2022-09-12T14:25:25;2.10;;;1.90;;
7817;SDS011;3954;52.624;9.212;2022-09-12T14:27:54;5.00;;;1.73;;
7817;SDS011;3954;52.624;9.212;2022-09-12T14:30:22;3.63;;;1.63;;
7817;SDS011;3954;52.624;9.212;2022-09-12T14:33:11;2.23;;;1.70;;
7817;SDS011;3954;52.624;9.212;2022-09-12T14:35:41;2.73;;;2.07;;
7817;SDS011;3954;52.624;9.212;2022-09-12T14:38:11;3.37;;;2.10;;
7817;SDS011;3954;52.624;9.212;2022-09-12T14:40:41;2.20;;;1.97;;
7817;SDS011;3954;52.624;9.212;2022-09-12T14:43:15;1.83;;;1.73;;
7817;SDS011;3954;52.624;9.212;2022-09-12T14:45:42;2.10;;;1.83;;
7817;SDS011;3954;52.624;9.212;2022-09-12T14:48:12;4.93;;;1.97;;
7817;SDS011;3954;52.624;9.212;2022-09-12T14:50:41;2.83;;;2.43;;
7817;SDS011;3954;52.624;9.212;2022-09-12T14:53:18;2.37;;;2.13;;
7817;SDS011;3954;52.624;9.212;2022-09-12T14:55:49;1.80;;;1.70;;
7817;SDS011;3954;52.624;9.212;2022-09-12T14:58:21;2.00;;;1.80;;
7817;SDS011;3954;52.624;9.212;2022-09-12T15:00:53;1.93;;;1.73;;
7817;SDS011;3954;52.624;9.212;2022-09-12T15:03:23;2.20;;;2.00;;
7817;SDS011;3954;52.624;9.212;2022-09-12T15:05:49;3.63;;;1.87;;
7817;SDS011;3954;52.624;9.212;2022-09-12T15:08:16;2.53;;;2.00;;
7817;SDS011;3954;52.624;9.212;2022-09-12T15:10:42;4.50;;;2.00;;
7817;SDS011;3954;52.624;9.212;2022-09-12T15:13:14;3.10;;;2.13;;
7817;SDS011;3954;52.624;9.212;2022-09-12T15:15:41;1.80;;;1.70;;
7817;SDS011;3954;52.624;9.212;2022-09-12T15:18:07;2.27;;;1.80;;
7817;SDS011;3954;52.624;9.212;2022-09-12T15:20:34;2.00;;;1.80;;
7817;SDS011;3954;52.624;9.212;2022-09-12T15:23:00;2.30;;;1.70;;
7817;SDS011;3954;52.624;9.212;2022-09-12T15:25:26;3.60;;;3.13;;
7817;SDS011;3954;52.624;9.212;2022-09-12T15:27:52;2.00;;;1.80;;
7817;SDS011;3954;52.624;9.212;2022-09-12T15:30:21;2.57;;;1.77;;
7817;SDS011;3954;52.624;9.212;2022-09-12T15:32:47;1.80;;;1.70;;
7817;SDS011;3954;52.624;9.212;2022-09-12T15:35:13;1.80;;;1.70;;
7817;SDS011;3954;52.624;9.212;2022-09-12T15:37:40;3.10;;;1.60;;
7817;SDS011;3954;52.624;9.212;2022-09-12T15:40:07;2.63;;;1.80;;
7817;SDS011;3954;52.624;9.212;2022-09-12T15:42:33;2.33;;;1.60;;